sensor_id;sensor_type;location;lat;lon;timestamp;P1;durP1;ratioP1;P2;durP2;ratioP2
46651;SDS011;32377;52.182;5.398;2022-12-10T00:01:09;114.47;;;43.13;;
46651;SDS011;32377;52.182;5.398;2022-12-10T00:03:40;115.20;;;43.73;;
46651;SDS011;32377;52.182;5.398;2022-12-10T00:06:07;109.20;;;45.33;;
46651;SDS011;32377;52.182;5.398;2022-12-10T00:08:35;110.93;;;43.93;;
46651;SDS011;32377;52.182;5.398;2022-12-10T00:11:02;120.13;;;46.00;;
46651;SDS011;32377;52.182;5.398;2022-12-10T00:13:29;113.73;;;45.53;;
46651;SDS011;32377;52.182;5.398;2022-12-10T00:15:54;118.53;;;44.37;;
46651;SDS011;32377;52.182;5.398;2022-12-10T00:18:20;115.93;;;44.43;;
46651;SDS011;32377;52.182;5.398;2022-12-10T00:20:45;114.27;;;45.30;;
46651;SDS011;32377;52.182;5.398;2022-12-10T00:23:11;120.77;;;47.73;;
46651;SDS011;32377;52.182;5.398;2022-12-10T00:25:37;117.47;;;46.33;;
46651;SDS011;32377;52.182;5.398;2022-12-10T00:28:02;122.73;;;47.80;;
46651;SDS011;32377;52.182;5.398;2022-12-10T00:30:28;129.93;;;48.27;;
46651;SDS011;32377;52.182;5.398;2022-12-10T00:32:54;128.57;;;48.57;;
46651;SDS011;32377;52.182;5.398;2022-12-10T00:35:19;126.67;;;48.60;;
46651;SDS011;32377;52.182;5.398;2022-12-10T00:37:45;121.90;;;46.30;;
46651;SDS011;32377;52.182;5.398;2022-12-10T00:40:11;128.40;;;48.10;;
46651;SDS011;32377;52.182;5.398;2022-12-10T00:42:36;132.37;;;48.47;;
46651;SDS011;32377;52.182;5.398;2022-12-10T00:45:03;125.23;;;47.03;;
46651;SDS011;32377;52.182;5.398;2022-12-10T00:47:29;135.73;;;48.20;;
46651;SDS011;32377;52.182;5.398;2022-12-10T00:49:55;128.83;;;48.53;;
46651;SDS011;32377;52.182;5.398;2022-12-10T00:52:20;134.80;;;49.57;;
46651;SDS011;32377;52.182;5.398;2022-12-10T00:54:46;130.20;;;48.47;;
46651;SDS011;32377;52.182;5.398;2022-12-10T00:57:12;136.30;;;48.73;;
46651;SDS011;32377;52.182;5.398;2022-12-10T00:59:37;148.60;;;48.87;;
46651;SDS011;32377;52.182;5.398;2022-12-10T01:02:03;135.87;;;49.83;;
46651;SDS011;32377;52.182;5.398;2022-12-10T01:04:28;125.33;;;45.97;;
46651;SDS011;32377;52.182;5.398;2022-12-10T01:06:54;134.53;;;46.33;;
46651;SDS011;32377;52.182;5.398;2022-12-10T01:09:23;124.13;;;45.80;;
46651;SDS011;32377;52.182;5.398;2022-12-10T01:11:52;129.93;;;48.73;;
46651;SDS011;32377;52.182;5.398;2022-12-10T01:14:19;133.70;;;47.13;;
46651;SDS011;32377;52.182;5.398;2022-12-10T01:16:47;128.33;;;45.03;;
46651;SDS011;32377;52.182;5.398;2022-12-10T01:19:14;113.63;;;43.93;;
46651;SDS011;32377;52.182;5.398;2022-12-10T01:21:39;126.77;;;45.97;;
46651;SDS011;32377;52.182;5.398;2022-12-10T01:24:05;126.40;;;44.87;;
46651;SDS011;32377;52.182;5.398;2022-12-10T01:26:32;117.23;;;43.87;;
46651;SDS011;32377;52.182;5.398;2022-12-10T01:28:59;129.30;;;46.00;;
46651;SDS011;32377;52.182;5.398;2022-12-10T01:31:26;118.10;;;44.67;;
46651;SDS011;32377;52.182;5.398;2022-12-10T01:33:54;122.97;;;44.43;;
46651;SDS011;32377;52.182;5.398;2022-12-10T01:36:22;120.13;;;43.97;;
46651;SDS011;32377;52.182;5.398;2022-12-10T01:38:49;135.17;;;48.13;;
46651;SDS011;32377;52.182;5.398;2022-12-10T01:41:17;131.73;;;45.00;;
46651;SDS011;32377;52.182;5.398;2022-12-10T01:43:56;128.17;;;46.17;;
46651;SDS011;32377;52.182;5.398;2022-12-10T01:46:26;133.00;;;45.27;;
46651;SDS011;32377;52.182;5.398;2022-12-10T01:48:59;124.50;;;46.63;;
46651;SDS011;32377;52.182;5.398;2022-12-10T01:51:28;112.17;;;44.00;;
46651;SDS011;32377;52.182;5.398;2022-12-10T01:53:56;131.30;;;45.93;;
46651;SDS011;32377;52.182;5.398;2022-12-10T01:56:22;122.90;;;44.33;;
46651;SDS011;32377;52.182;5.398;2022-12-10T01:58:51;129.37;;;43.40;;
46651;SDS011;32377;52.182;5.398;2022-12-10T02:04:14;122.20;;;43.50;;
46651;SDS011;32377;52.182;5.398;2022-12-10T02:06:45;118.57;;;42.60;;
46651;SDS011;32377;52.182;5.398;2022-12-10T02:12:29;132.73;;;45.07;;
46651;SDS011;32377;52.182;5.398;2022-12-10T02:15:06;138.67;;;45.00;;
46651;SDS011;32377;52.182;5.398;2022-12-10T02:18:02;142.43;;;47.30;;
46651;SDS011;32377;52.182;5.398;2022-12-10T02:20:45;137.23;;;45.13;;
46651;SDS011;32377;52.182;5.398;2022-12-10T02:23:21;131.75;;;45.65;;
46651;SDS011;32377;52.182;5.398;2022-12-10T02:26:02;145.80;;;44.73;;
46651;SDS011;32377;52.182;5.398;2022-12-10T02:31:29;162.20;;;45.93;;
46651;SDS011;32377;52.182;5.398;2022-12-10T02:33:58;135.47;;;42.80;;
46651;SDS011;32377;52.182;5.398;2022-12-10T02:36:27;179.80;;;46.80;;
46651;SDS011;32377;52.182;5.398;2022-12-10T02:38:56;148.03;;;44.13;;
46651;SDS011;32377;52.182;5.398;2022-12-10T02:41:27;164.80;;;48.80;;
46651;SDS011;32377;52.182;5.398;2022-12-10T02:43:57;158.40;;;47.10;;
46651;SDS011;32377;52.182;5.398;2022-12-10T02:46:26;150.33;;;44.03;;
46651;SDS011;32377;52.182;5.398;2022-12-10T02:48:54;142.80;;;44.57;;
46651;SDS011;32377;52.182;5.398;2022-12-10T02:51:21;144.47;;;45.00;;
46651;SDS011;32377;52.182;5.398;2022-12-10T02:53:47;164.53;;;44.63;;
46651;SDS011;32377;52.182;5.398;2022-12-10T02:59:14;142.73;;;43.20;;
46651;SDS011;32377;52.182;5.398;2022-12-10T03:07:35;149.97;;;46.27;;
46651;SDS011;32377;52.182;5.398;2022-12-10T03:10:10;144.33;;;44.07;;
46651;SDS011;32377;52.182;5.398;2022-12-10T03:12:46;161.27;;;46.77;;
46651;SDS011;32377;52.182;5.398;2022-12-10T03:15:16;142.32;;;44.55;;
46651;SDS011;32377;52.182;5.398;2022-12-10T03:17:44;165.93;;;48.03;;
46651;SDS011;32377;52.182;5.398;2022-12-10T03:20:13;184.40;;;45.27;;
46651;SDS011;32377;52.182;5.398;2022-12-10T03:22:42;214.07;;;46.77;;
46651;SDS011;32377;52.182;5.398;2022-12-10T03:25:10;223.60;;;46.33;;
46651;SDS011;32377;52.182;5.398;2022-12-10T03:27:39;190.43;;;44.00;;
46651;SDS011;32377;52.182;5.398;2022-12-10T03:30:06;189.33;;;43.07;;
46651;SDS011;32377;52.182;5.398;2022-12-10T03:32:33;174.20;;;42.90;;
46651;SDS011;32377;52.182;5.398;2022-12-10T03:34:59;144.63;;;41.63;;
46651;SDS011;32377;52.182;5.398;2022-12-10T03:37:26;155.93;;;42.50;;
46651;SDS011;32377;52.182;5.398;2022-12-10T03:39:53;156.40;;;42.63;;
46651;SDS011;32377;52.182;5.398;2022-12-10T03:42:19;153.93;;;42.93;;
46651;SDS011;32377;52.182;5.398;2022-12-10T03:44:48;184.83;;;43.23;;
46651;SDS011;32377;52.182;5.398;2022-12-10T03:47:15;178.43;;;40.87;;
46651;SDS011;32377;52.182;5.398;2022-12-10T03:49:41;163.40;;;41.57;;
46651;SDS011;32377;52.182;5.398;2022-12-10T03:52:07;213.40;;;42.50;;
46651;SDS011;32377;52.182;5.398;2022-12-10T03:54:33;180.27;;;41.70;;
46651;SDS011;32377;52.182;5.398;2022-12-10T03:56:59;146.07;;;39.30;;
46651;SDS011;32377;52.182;5.398;2022-12-10T03:59:24;251.03;;;41.87;;
46651;SDS011;32377;52.182;5.398;2022-12-10T04:01:50;192.50;;;42.70;;
46651;SDS011;32377;52.182;5.398;2022-12-10T04:04:16;197.80;;;40.47;;
46651;SDS011;32377;52.182;5.398;2022-12-10T04:06:41;255.93;;;42.90;;
46651;SDS011;32377;52.182;5.398;2022-12-10T04:09:10;190.00;;;43.73;;
46651;SDS011;32377;52.182;5.398;2022-12-10T04:11:37;212.23;;;42.47;;
46651;SDS011;32377;52.182;5.398;2022-12-10T04:14:03;153.57;;;40.17;;
46651;SDS011;32377;52.182;5.398;2022-12-10T04:16:47;220.17;;;43.33;;
46651;SDS011;32377;52.182;5.398;2022-12-10T04:19:14;170.17;;;40.33;;
46651;SDS011;32377;52.182;5.398;2022-12-10T04:21:42;167.00;;;41.07;;
46651;SDS011;32377;52.182;5.398;2022-12-10T04:24:28;204.50;;;39.17;;
46651;SDS011;32377;52.182;5.398;2022-12-10T04:27:19;202.20;;;41.33;;
46651;SDS011;32377;52.182;5.398;2022-12-10T04:29:45;145.50;;;40.17;;
46651;SDS011;32377;52.182;5.398;2022-12-10T04:32:11;165.17;;;39.47;;
46651;SDS011;32377;52.182;5.398;2022-12-10T04:34:36;156.67;;;39.10;;
46651;SDS011;32377;52.182;5.398;2022-12-10T04:37:02;152.73;;;41.00;;
46651;SDS011;32377;52.182;5.398;2022-12-10T04:39:29;134.00;;;38.73;;
46651;SDS011;32377;52.182;5.398;2022-12-10T04:41:54;145.70;;;39.00;;
46651;SDS011;32377;52.182;5.398;2022-12-10T04:44:20;142.93;;;38.80;;
46651;SDS011;32377;52.182;5.398;2022-12-10T04:46:46;157.87;;;39.13;;
46651;SDS011;32377;52.182;5.398;2022-12-10T04:49:12;156.97;;;39.30;;
46651;SDS011;32377;52.182;5.398;2022-12-10T04:51:38;153.13;;;38.93;;
46651;SDS011;32377;52.182;5.398;2022-12-10T04:54:04;199.57;;;39.30;;
46651;SDS011;32377;52.182;5.398;2022-12-10T04:56:31;153.27;;;39.20;;
46651;SDS011;32377;52.182;5.398;2022-12-10T04:58:57;195.07;;;38.67;;
46651;SDS011;32377;52.182;5.398;2022-12-10T05:01:23;143.43;;;39.27;;
46651;SDS011;32377;52.182;5.398;2022-12-10T05:03:49;137.07;;;37.83;;
46651;SDS011;32377;52.182;5.398;2022-12-10T05:06:15;166.60;;;37.83;;
46651;SDS011;32377;52.182;5.398;2022-12-10T05:08:42;141.07;;;39.60;;
46651;SDS011;32377;52.182;5.398;2022-12-10T05:11:18;135.27;;;39.27;;
46651;SDS011;32377;52.182;5.398;2022-12-10T05:13:45;128.90;;;38.73;;
46651;SDS011;32377;52.182;5.398;2022-12-10T05:16:12;145.27;;;38.00;;
46651;SDS011;32377;52.182;5.398;2022-12-10T05:18:42;120.73;;;37.67;;
46651;SDS011;32377;52.182;5.398;2022-12-10T05:21:10;150.80;;;36.37;;
46651;SDS011;32377;52.182;5.398;2022-12-10T05:23:38;129.23;;;38.17;;
46651;SDS011;32377;52.182;5.398;2022-12-10T05:26:06;119.83;;;39.43;;
46651;SDS011;32377;52.182;5.398;2022-12-10T05:28:35;145.17;;;39.50;;
46651;SDS011;32377;52.182;5.398;2022-12-10T05:31:02;162.37;;;42.13;;
46651;SDS011;32377;52.182;5.398;2022-12-10T05:33:28;158.13;;;40.30;;
46651;SDS011;32377;52.182;5.398;2022-12-10T05:36:03;163.93;;;41.80;;
46651;SDS011;32377;52.182;5.398;2022-12-10T05:38:29;161.93;;;42.07;;
46651;SDS011;32377;52.182;5.398;2022-12-10T05:41:00;179.53;;;44.50;;
46651;SDS011;32377;52.182;5.398;2022-12-10T05:43:27;204.03;;;43.23;;
46651;SDS011;32377;52.182;5.398;2022-12-10T05:45:53;157.50;;;41.63;;
46651;SDS011;32377;52.182;5.398;2022-12-10T05:48:18;146.37;;;43.30;;
46651;SDS011;32377;52.182;5.398;2022-12-10T05:50:44;133.50;;;42.57;;
46651;SDS011;32377;52.182;5.398;2022-12-10T05:53:09;165.70;;;43.30;;
46651;SDS011;32377;52.182;5.398;2022-12-10T05:55:38;148.97;;;41.77;;
46651;SDS011;32377;52.182;5.398;2022-12-10T05:58:04;158.90;;;40.90;;
46651;SDS011;32377;52.182;5.398;2022-12-10T06:00:29;152.70;;;42.20;;
46651;SDS011;32377;52.182;5.398;2022-12-10T06:02:55;129.77;;;41.77;;
46651;SDS011;32377;52.182;5.398;2022-12-10T06:05:21;141.57;;;43.77;;
46651;SDS011;32377;52.182;5.398;2022-12-10T06:07:46;149.60;;;43.50;;
46651;SDS011;32377;52.182;5.398;2022-12-10T06:10:12;111.03;;;38.53;;
46651;SDS011;32377;52.182;5.398;2022-12-10T06:12:38;105.33;;;37.17;;
46651;SDS011;32377;52.182;5.398;2022-12-10T06:15:04;143.70;;;42.00;;
46651;SDS011;32377;52.182;5.398;2022-12-10T06:17:30;150.73;;;44.40;;
46651;SDS011;32377;52.182;5.398;2022-12-10T06:19:56;162.20;;;46.83;;
46651;SDS011;32377;52.182;5.398;2022-12-10T06:22:22;171.00;;;44.47;;
46651;SDS011;32377;52.182;5.398;2022-12-10T06:24:48;153.10;;;48.13;;
46651;SDS011;32377;52.182;5.398;2022-12-10T06:27:14;150.23;;;46.53;;
46651;SDS011;32377;52.182;5.398;2022-12-10T06:29:39;143.67;;;43.47;;
46651;SDS011;32377;52.182;5.398;2022-12-10T06:32:05;131.20;;;41.93;;
46651;SDS011;32377;52.182;5.398;2022-12-10T06:34:31;135.40;;;41.90;;
46651;SDS011;32377;52.182;5.398;2022-12-10T06:36:57;139.10;;;43.17;;
46651;SDS011;32377;52.182;5.398;2022-12-10T06:39:22;129.03;;;40.60;;
46651;SDS011;32377;52.182;5.398;2022-12-10T06:41:48;124.57;;;38.57;;
46651;SDS011;32377;52.182;5.398;2022-12-10T06:44:13;105.50;;;36.37;;
46651;SDS011;32377;52.182;5.398;2022-12-10T06:46:39;94.83;;;36.63;;
46651;SDS011;32377;52.182;5.398;2022-12-10T06:49:05;108.83;;;37.00;;
46651;SDS011;32377;52.182;5.398;2022-12-10T06:51:32;98.17;;;34.97;;
46651;SDS011;32377;52.182;5.398;2022-12-10T06:53:58;112.00;;;39.60;;
46651;SDS011;32377;52.182;5.398;2022-12-10T06:56:24;116.13;;;36.70;;
46651;SDS011;32377;52.182;5.398;2022-12-10T06:58:49;123.17;;;37.60;;
46651;SDS011;32377;52.182;5.398;2022-12-10T07:01:19;104.90;;;38.40;;
46651;SDS011;32377;52.182;5.398;2022-12-10T07:03:47;105.47;;;35.67;;
46651;SDS011;32377;52.182;5.398;2022-12-10T07:06:14;118.77;;;38.63;;
46651;SDS011;32377;52.182;5.398;2022-12-10T07:08:40;111.53;;;40.20;;
46651;SDS011;32377;52.182;5.398;2022-12-10T07:11:06;104.97;;;38.10;;
46651;SDS011;32377;52.182;5.398;2022-12-10T07:13:34;107.13;;;36.17;;
46651;SDS011;32377;52.182;5.398;2022-12-10T07:16:00;128.80;;;37.97;;
46651;SDS011;32377;52.182;5.398;2022-12-10T07:18:25;122.17;;;39.70;;
46651;SDS011;32377;52.182;5.398;2022-12-10T07:20:52;114.57;;;39.43;;
46651;SDS011;32377;52.182;5.398;2022-12-10T07:23:18;112.93;;;40.63;;
46651;SDS011;32377;52.182;5.398;2022-12-10T07:25:44;128.07;;;38.43;;
46651;SDS011;32377;52.182;5.398;2022-12-10T07:28:10;127.67;;;41.23;;
46651;SDS011;32377;52.182;5.398;2022-12-10T07:30:35;117.60;;;39.73;;
46651;SDS011;32377;52.182;5.398;2022-12-10T07:33:01;124.90;;;40.50;;
46651;SDS011;32377;52.182;5.398;2022-12-10T07:35:27;127.03;;;41.70;;
46651;SDS011;32377;52.182;5.398;2022-12-10T07:37:52;116.03;;;40.90;;
46651;SDS011;32377;52.182;5.398;2022-12-10T07:40:18;138.23;;;40.73;;
46651;SDS011;32377;52.182;5.398;2022-12-10T07:42:43;130.37;;;42.10;;
46651;SDS011;32377;52.182;5.398;2022-12-10T07:45:09;127.73;;;40.70;;
46651;SDS011;32377;52.182;5.398;2022-12-10T07:47:36;126.73;;;41.60;;
46651;SDS011;32377;52.182;5.398;2022-12-10T07:50:02;134.93;;;41.60;;
46651;SDS011;32377;52.182;5.398;2022-12-10T07:52:28;122.83;;;42.27;;
46651;SDS011;32377;52.182;5.398;2022-12-10T07:54:54;141.13;;;42.17;;
46651;SDS011;32377;52.182;5.398;2022-12-10T07:57:20;130.87;;;41.63;;
46651;SDS011;32377;52.182;5.398;2022-12-10T07:59:46;148.10;;;41.30;;
46651;SDS011;32377;52.182;5.398;2022-12-10T08:02:12;125.13;;;39.17;;
46651;SDS011;32377;52.182;5.398;2022-12-10T08:04:37;136.53;;;39.73;;
46651;SDS011;32377;52.182;5.398;2022-12-10T08:07:03;109.27;;;38.37;;
46651;SDS011;32377;52.182;5.398;2022-12-10T08:09:29;157.70;;;39.80;;
46651;SDS011;32377;52.182;5.398;2022-12-10T08:11:55;139.63;;;40.33;;
46651;SDS011;32377;52.182;5.398;2022-12-10T08:14:21;139.20;;;38.30;;
46651;SDS011;32377;52.182;5.398;2022-12-10T08:16:46;133.60;;;39.50;;
46651;SDS011;32377;52.182;5.398;2022-12-10T08:19:12;141.13;;;39.10;;
46651;SDS011;32377;52.182;5.398;2022-12-10T08:21:37;114.37;;;37.73;;
46651;SDS011;32377;52.182;5.398;2022-12-10T08:24:03;127.20;;;38.33;;
46651;SDS011;32377;52.182;5.398;2022-12-10T08:26:31;119.97;;;39.17;;
46651;SDS011;32377;52.182;5.398;2022-12-10T08:28:58;122.27;;;39.00;;
46651;SDS011;32377;52.182;5.398;2022-12-10T08:31:24;126.43;;;40.50;;
46651;SDS011;32377;52.182;5.398;2022-12-10T08:33:51;127.57;;;38.27;;
46651;SDS011;32377;52.182;5.398;2022-12-10T08:36:18;116.57;;;37.20;;
46651;SDS011;32377;52.182;5.398;2022-12-10T08:38:44;119.80;;;36.97;;
46651;SDS011;32377;52.182;5.398;2022-12-10T08:43:38;117.47;;;38.83;;
46651;SDS011;32377;52.182;5.398;2022-12-10T08:46:03;121.93;;;36.97;;
46651;SDS011;32377;52.182;5.398;2022-12-10T08:48:29;114.83;;;36.40;;
46651;SDS011;32377;52.182;5.398;2022-12-10T08:50:55;128.57;;;39.37;;
46651;SDS011;32377;52.182;5.398;2022-12-10T08:53:21;106.37;;;37.43;;
46651;SDS011;32377;52.182;5.398;2022-12-10T08:55:51;126.43;;;39.30;;
46651;SDS011;32377;52.182;5.398;2022-12-10T08:58:17;117.10;;;39.37;;
46651;SDS011;32377;52.182;5.398;2022-12-10T09:00:43;116.83;;;38.37;;
46651;SDS011;32377;52.182;5.398;2022-12-10T09:03:09;111.30;;;37.57;;
46651;SDS011;32377;52.182;5.398;2022-12-10T09:05:35;109.67;;;37.27;;
46651;SDS011;32377;52.182;5.398;2022-12-10T09:08:01;110.77;;;39.03;;
46651;SDS011;32377;52.182;5.398;2022-12-10T09:10:26;110.80;;;36.33;;
46651;SDS011;32377;52.182;5.398;2022-12-10T09:12:52;104.10;;;36.63;;
46651;SDS011;32377;52.182;5.398;2022-12-10T09:15:18;122.87;;;35.93;;
46651;SDS011;32377;52.182;5.398;2022-12-10T09:17:43;113.70;;;35.77;;
46651;SDS011;32377;52.182;5.398;2022-12-10T09:20:09;110.77;;;38.57;;
46651;SDS011;32377;52.182;5.398;2022-12-10T09:22:35;105.10;;;37.10;;
46651;SDS011;32377;52.182;5.398;2022-12-10T09:25:05;98.57;;;36.90;;
46651;SDS011;32377;52.182;5.398;2022-12-10T09:27:34;105.47;;;35.23;;
46651;SDS011;32377;52.182;5.398;2022-12-10T09:30:00;107.80;;;35.37;;
46651;SDS011;32377;52.182;5.398;2022-12-10T09:32:26;113.70;;;35.93;;
46651;SDS011;32377;52.182;5.398;2022-12-10T09:34:52;112.63;;;33.93;;
46651;SDS011;32377;52.182;5.398;2022-12-10T09:37:18;95.67;;;33.50;;
46651;SDS011;32377;52.182;5.398;2022-12-10T09:39:44;102.63;;;34.80;;
46651;SDS011;32377;52.182;5.398;2022-12-10T09:45:40;100.33;;;34.60;;
46651;SDS011;32377;52.182;5.398;2022-12-10T09:50:53;113.73;;;35.13;;
46651;SDS011;32377;52.182;5.398;2022-12-10T09:53:26;102.97;;;32.30;;
46651;SDS011;32377;52.182;5.398;2022-12-10T09:55:53;105.23;;;34.10;;
46651;SDS011;32377;52.182;5.398;2022-12-10T09:58:21;90.00;;;31.73;;
46651;SDS011;32377;52.182;5.398;2022-12-10T10:01:07;91.43;;;32.73;;
46651;SDS011;32377;52.182;5.398;2022-12-10T10:03:39;110.70;;;34.37;;
46651;SDS011;32377;52.182;5.398;2022-12-10T10:06:06;105.50;;;35.03;;
46651;SDS011;32377;52.182;5.398;2022-12-10T10:08:43;96.60;;;32.37;;
46651;SDS011;32377;52.182;5.398;2022-12-10T10:11:13;112.05;;;32.78;;
46651;SDS011;32377;52.182;5.398;2022-12-10T10:13:44;99.67;;;33.50;;
46651;SDS011;32377;52.182;5.398;2022-12-10T10:16:26;95.50;;;30.13;;
46651;SDS011;32377;52.182;5.398;2022-12-10T10:19:00;99.18;;;31.73;;
46651;SDS011;32377;52.182;5.398;2022-12-10T10:21:44;92.00;;;30.35;;
46651;SDS011;32377;52.182;5.398;2022-12-10T10:24:13;107.17;;;29.67;;
46651;SDS011;32377;52.182;5.398;2022-12-10T10:27:17;95.90;;;27.40;;
46651;SDS011;32377;52.182;5.398;2022-12-10T10:29:49;89.33;;;29.37;;
46651;SDS011;32377;52.182;5.398;2022-12-10T10:32:20;90.20;;;29.90;;
46651;SDS011;32377;52.182;5.398;2022-12-10T10:35:28;84.55;;;30.90;;
46651;SDS011;32377;52.182;5.398;2022-12-10T10:37:56;92.30;;;32.97;;
46651;SDS011;32377;52.182;5.398;2022-12-10T10:40:32;95.70;;;30.58;;
46651;SDS011;32377;52.182;5.398;2022-12-10T10:43:04;90.03;;;29.63;;
46651;SDS011;32377;52.182;5.398;2022-12-10T10:50:54;91.73;;;31.73;;
46651;SDS011;32377;52.182;5.398;2022-12-10T10:56:13;99.43;;;29.47;;
46651;SDS011;32377;52.182;5.398;2022-12-10T11:01:48;92.57;;;29.33;;
46651;SDS011;32377;52.182;5.398;2022-12-10T11:04:17;94.38;;;30.63;;
46651;SDS011;32377;52.182;5.398;2022-12-10T11:06:46;86.30;;;29.57;;
46651;SDS011;32377;52.182;5.398;2022-12-10T11:09:17;89.27;;;28.47;;
46651;SDS011;32377;52.182;5.398;2022-12-10T11:11:49;91.70;;;28.43;;
46651;SDS011;32377;52.182;5.398;2022-12-10T11:16:56;105.07;;;31.63;;
46651;SDS011;32377;52.182;5.398;2022-12-10T11:20:01;97.13;;;30.53;;
46651;SDS011;32377;52.182;5.398;2022-12-10T11:22:48;101.40;;;33.30;;
46651;SDS011;32377;52.182;5.398;2022-12-10T11:25:15;97.43;;;31.60;;
46651;SDS011;32377;52.182;5.398;2022-12-10T11:27:49;91.97;;;31.67;;
46651;SDS011;32377;52.182;5.398;2022-12-10T11:30:32;84.63;;;28.50;;
46651;SDS011;32377;52.182;5.398;2022-12-10T11:41:34;87.93;;;25.70;;
46651;SDS011;32377;52.182;5.398;2022-12-10T11:47:27;80.95;;;26.38;;
46651;SDS011;32377;52.182;5.398;2022-12-10T11:52:53;80.33;;;27.40;;
46651;SDS011;32377;52.182;5.398;2022-12-10T12:10:19;81.70;;;25.93;;
46651;SDS011;32377;52.182;5.398;2022-12-10T12:15:28;77.07;;;26.63;;
46651;SDS011;32377;52.182;5.398;2022-12-10T12:20:48;84.40;;;27.73;;
46651;SDS011;32377;52.182;5.398;2022-12-10T12:26:10;73.07;;;26.13;;
46651;SDS011;32377;52.182;5.398;2022-12-10T12:28:43;76.73;;;26.73;;
46651;SDS011;32377;52.182;5.398;2022-12-10T12:31:35;91.60;;;30.07;;
46651;SDS011;32377;52.182;5.398;2022-12-10T12:36:57;82.63;;;27.83;;
46651;SDS011;32377;52.182;5.398;2022-12-10T12:39:27;79.87;;;27.13;;
46651;SDS011;32377;52.182;5.398;2022-12-10T12:41:58;77.43;;;28.57;;
46651;SDS011;32377;52.182;5.398;2022-12-10T12:49:52;85.23;;;30.43;;
46651;SDS011;32377;52.182;5.398;2022-12-10T12:54:55;85.18;;;29.55;;
46651;SDS011;32377;52.182;5.398;2022-12-10T13:00:18;92.77;;;29.67;;
46651;SDS011;32377;52.182;5.398;2022-12-10T13:03:00;94.13;;;32.00;;
46651;SDS011;32377;52.182;5.398;2022-12-10T13:05:32;99.60;;;32.13;;
46651;SDS011;32377;52.182;5.398;2022-12-10T13:34:45;100.77;;;36.10;;
46651;SDS011;32377;52.182;5.398;2022-12-10T13:42:35;100.30;;;32.30;;
46651;SDS011;32377;52.182;5.398;2022-12-10T13:47:48;87.20;;;30.03;;
46651;SDS011;32377;52.182;5.398;2022-12-10T13:50:32;84.17;;;29.33;;
46651;SDS011;32377;52.182;5.398;2022-12-10T13:58:45;90.67;;;28.57;;
46651;SDS011;32377;52.182;5.398;2022-12-10T14:06:46;101.90;;;32.13;;
46651;SDS011;32377;52.182;5.398;2022-12-10T14:11:49;92.40;;;30.83;;
46651;SDS011;32377;52.182;5.398;2022-12-10T14:17:04;89.63;;;30.33;;
46651;SDS011;32377;52.182;5.398;2022-12-10T14:19:43;133.02;;;38.08;;
46651;SDS011;32377;52.182;5.398;2022-12-10T14:22:18;86.90;;;28.47;;
46651;SDS011;32377;52.182;5.398;2022-12-10T14:24:50;105.87;;;31.20;;
46651;SDS011;32377;52.182;5.398;2022-12-10T14:27:20;97.57;;;29.90;;
46651;SDS011;32377;52.182;5.398;2022-12-10T14:29:52;88.07;;;32.10;;
46651;SDS011;32377;52.182;5.398;2022-12-10T14:32:29;88.03;;;30.03;;
46651;SDS011;32377;52.182;5.398;2022-12-10T14:35:04;105.70;;;32.47;;
46651;SDS011;32377;52.182;5.398;2022-12-10T14:37:36;105.43;;;30.20;;
46651;SDS011;32377;52.182;5.398;2022-12-10T14:40:07;96.50;;;31.10;;
46651;SDS011;32377;52.182;5.398;2022-12-10T14:42:34;96.80;;;31.40;;
46651;SDS011;32377;52.182;5.398;2022-12-10T14:45:03;103.53;;;32.97;;
46651;SDS011;32377;52.182;5.398;2022-12-10T14:47:37;101.13;;;30.43;;
46651;SDS011;32377;52.182;5.398;2022-12-10T14:50:04;113.70;;;31.07;;
46651;SDS011;32377;52.182;5.398;2022-12-10T14:52:39;109.80;;;31.20;;
46651;SDS011;32377;52.182;5.398;2022-12-10T14:55:14;106.50;;;29.70;;
46651;SDS011;32377;52.182;5.398;2022-12-10T14:57:42;103.13;;;29.87;;
46651;SDS011;32377;52.182;5.398;2022-12-10T15:00:15;116.13;;;30.43;;
46651;SDS011;32377;52.182;5.398;2022-12-10T15:02:45;117.33;;;31.63;;
46651;SDS011;32377;52.182;5.398;2022-12-10T15:05:13;105.73;;;33.00;;
46651;SDS011;32377;52.182;5.398;2022-12-10T15:07:43;114.70;;;34.03;;
46651;SDS011;32377;52.182;5.398;2022-12-10T15:10:27;114.93;;;34.30;;
46651;SDS011;32377;52.182;5.398;2022-12-10T15:12:57;115.13;;;35.37;;
46651;SDS011;32377;52.182;5.398;2022-12-10T15:17:58;109.40;;;34.73;;
46651;SDS011;32377;52.182;5.398;2022-12-10T15:20:47;126.63;;;35.53;;
46651;SDS011;32377;52.182;5.398;2022-12-10T15:31:19;121.83;;;34.10;;
46651;SDS011;32377;52.182;5.398;2022-12-10T15:33:55;127.80;;;35.47;;
46651;SDS011;32377;52.182;5.398;2022-12-10T15:44:19;124.87;;;36.33;;
46651;SDS011;32377;52.182;5.398;2022-12-10T15:46:52;119.47;;;35.07;;
46651;SDS011;32377;52.182;5.398;2022-12-10T15:49:34;123.47;;;35.77;;
46651;SDS011;32377;52.182;5.398;2022-12-10T15:52:00;144.10;;;37.97;;
46651;SDS011;32377;52.182;5.398;2022-12-10T15:54:36;129.20;;;36.83;;
46651;SDS011;32377;52.182;5.398;2022-12-10T15:57:13;130.70;;;34.10;;
46651;SDS011;32377;52.182;5.398;2022-12-10T15:59:42;139.97;;;37.93;;
46651;SDS011;32377;52.182;5.398;2022-12-10T16:02:24;110.73;;;35.43;;
46651;SDS011;32377;52.182;5.398;2022-12-10T16:10:50;132.43;;;38.73;;
46651;SDS011;32377;52.182;5.398;2022-12-10T16:13:21;134.07;;;37.63;;
46651;SDS011;32377;52.182;5.398;2022-12-10T16:18:18;133.90;;;38.13;;
46651;SDS011;32377;52.182;5.398;2022-12-10T16:20:44;130.57;;;38.53;;
46651;SDS011;32377;52.182;5.398;2022-12-10T16:23:13;116.10;;;37.73;;
46651;SDS011;32377;52.182;5.398;2022-12-10T16:25:40;136.57;;;38.57;;
46651;SDS011;32377;52.182;5.398;2022-12-10T16:28:10;160.57;;;38.83;;
46651;SDS011;32377;52.182;5.398;2022-12-10T16:30:45;113.80;;;33.77;;
46651;SDS011;32377;52.182;5.398;2022-12-10T16:33:17;124.63;;;35.47;;
46651;SDS011;32377;52.182;5.398;2022-12-10T16:35:44;110.37;;;32.03;;
46651;SDS011;32377;52.182;5.398;2022-12-10T16:38:10;102.77;;;32.27;;
46651;SDS011;32377;52.182;5.398;2022-12-10T16:40:37;103.53;;;33.20;;
46651;SDS011;32377;52.182;5.398;2022-12-10T16:43:04;103.93;;;31.57;;
46651;SDS011;32377;52.182;5.398;2022-12-10T16:45:36;115.17;;;32.57;;
46651;SDS011;32377;52.182;5.398;2022-12-10T16:48:03;115.83;;;32.57;;
46651;SDS011;32377;52.182;5.398;2022-12-10T16:50:29;118.80;;;33.67;;
46651;SDS011;32377;52.182;5.398;2022-12-10T16:52:56;120.37;;;33.10;;
46651;SDS011;32377;52.182;5.398;2022-12-10T16:55:23;232.73;;;57.10;;
46651;SDS011;32377;52.182;5.398;2022-12-10T16:57:50;215.23;;;53.43;;
46651;SDS011;32377;52.182;5.398;2022-12-10T17:00:18;297.93;;;65.80;;
46651;SDS011;32377;52.182;5.398;2022-12-10T17:02:46;111.03;;;32.73;;
46651;SDS011;32377;52.182;5.398;2022-12-10T17:05:55;233.73;;;54.37;;
46651;SDS011;32377;52.182;5.398;2022-12-10T17:08:04;122.40;;;36.90;;
46651;SDS011;32377;52.182;5.398;2022-12-10T17:10:29;204.13;;;52.27;;
46651;SDS011;32377;52.182;5.398;2022-12-10T17:13:14;126.72;;;40.65;;